Time;durP1;ratioP1;P1;durP2;ratioP2;P2;SDS_P1;SDS_P2;PMS_P1;PMS_P2;Temp;Humidity;BMP_temperature;BMP_pressure;BME280_temperature;BME280_humidity;BME280_pressure;Samples;Min_cycle;Max_cycle;Signal;HPM_P1;HPM_P2
2021/01/26 00:01:22;;;;;;;24.32;12.20;;;;;;;10.76;62.87;98308.00;1774470;80;21150;-77
2021/01/26 00:03:50;;;;;;;15.85;8.68;;;;;;;10.79;62.92;98306.77;1797147;79;21206;-76
2021/01/26 00:06:18;;;;;;;11.60;6.78;;;;;;;10.83;62.87;98300.77;1774270;79;21361;-75
2021/01/26 00:08:45;;;;;;;14.07;6.85;;;;;;;10.88;62.82;98299.62;1797649;79;21170;-75
2021/01/26 00:11:13;;;;;;;7.55;4.12;;;;;;;10.92;62.74;98313.41;1774622;80;21129;-78
2021/01/26 00:13:41;;;;;;;10.35;5.45;;;;;;;10.96;62.69;98305.26;1792656;79;21166;-73
2021/01/26 00:16:09;;;;;;;8.05;5.30;;;;;;;11.00;62.60;98306.48;1789404;80;21139;-76
2021/01/26 00:18:37;;;;;;;5.62;3.05;;;;;;;11.04;62.48;98317.08;1780312;80;22348;-75
2021/01/26 00:21:05;;;;;;;4.08;2.75;;;;;;;11.06;62.31;98312.83;1793854;79;21166;-76
2021/01/26 00:23:34;;;;;;;3.15;2.47;;;;;;;11.10;62.09;98314.05;1778200;80;21154;-77
2021/01/26 00:26:01;;;;;;;2.25;2.02;;;;;;;11.15;61.77;98324.94;1801790;79;21211;-76
2021/01/26 00:28:29;;;;;;;2.65;2.00;;;;;;;11.18;61.60;98319.98;1789228;80;21625;-75
2021/01/26 00:30:57;;;;;;;3.45;2.22;;;;;;;11.24;61.40;98308.09;1756387;80;21811;-76
2021/01/26 00:33:25;;;;;;;2.30;2.10;;;;;;;11.27;61.12;98308.50;1794249;79;21142;-77
2021/01/26 00:35:53;;;;;;;2.37;2.10;;;;;;;11.29;60.78;98335.08;1789324;80;21486;-74
2021/01/26 00:38:22;;;;;;;41.13;15.72;;;;;;;11.31;60.73;98332.98;1770841;80;21050;-77
2021/01/26 00:40:50;;;;;;;29.52;13.32;;;;;;;11.35;60.26;98335.55;1806450;79;21165;-76
2021/01/26 00:43:17;;;;;;;26.48;12.88;;;;;;;11.46;59.50;98332.20;1776675;80;21403;-77
2021/01/26 00:45:46;;;;;;;18.37;8.70;;;;;;;11.50;58.80;98345.47;1793039;79;21031;-75
2021/01/26 00:48:15;;;;;;;28.27;10.10;;;;;;;11.46;58.04;98344.26;1765559;80;21139;-77
2021/01/26 00:50:43;;;;;;;22.67;9.43;;;;;;;11.41;57.77;98356.97;1790589;79;21170;-75
2021/01/26 00:53:10;;;;;;;27.17;10.85;;;;;;;11.37;57.21;98370.49;1789412;80;21177;-76
2021/01/26 00:55:40;;;;;;;72.47;27.75;;;;;;;11.24;57.04;98377.77;1771680;80;22700;-77
2021/01/26 00:58:09;;;;;;;33.25;12.85;;;;;;;11.12;57.06;98375.75;1797809;79;21138;-76
2021/01/26 01:00:38;;;;;;;16.70;7.05;;;;;;;11.07;57.03;98381.45;1797880;79;21166;-76
2021/01/26 01:03:07;;;;;;;34.15;15.13;;;;;;;11.09;56.76;98388.25;1774738;80;21193;-74
2021/01/26 01:05:36;;;;;;;14.33;7.00;;;;;;;11.08;56.62;98404.03;1797737;79;21158;-74
2021/01/26 01:08:04;;;;;;;4.87;3.52;;;;;;;11.05;56.08;98394.24;1789253;80;21775;-75
2021/01/26 01:10:36;;;;;;;5.00;3.12;;;;;;;11.07;55.60;98398.34;1770140;80;21177;-77
2021/01/26 01:13:05;;;;;;;3.33;3.02;;;;;;;11.13;55.19;98408.23;1806652;79;21169;-76
2021/01/26 01:15:33;;;;;;;4.10;2.98;;;;;;;11.19;54.72;98414.59;1780040;80;21166;-74
2021/01/26 01:18:01;;;;;;;3.10;2.75;;;;;;;11.26;54.22;98430.11;1798134;79;21115;-75
2021/01/26 01:20:29;;;;;;;3.85;3.25;;;;;;;11.28;53.56;98412.50;1774626;80;21354;-76
2021/01/26 01:22:57;;;;;;;4.35;3.92;;;;;;;11.28;53.21;98446.00;1789486;79;21178;-74
2021/01/26 01:25:24;;;;;;;4.12;3.27;;;;;;;11.28;52.95;98453.52;1788958;80;21123;-75
2021/01/26 01:27:52;;;;;;;5.00;2.90;;;;;;;11.28;52.63;98463.41;1776141;80;21161;-75
2021/01/26 01:30:24;;;;;;;3.25;2.95;;;;;;;11.25;52.28;98476.70;1802216;79;21080;-76
2021/01/26 01:32:52;;;;;;;4.42;3.62;;;;;;;11.26;52.08;98481.55;1789010;80;21273;-75
2021/01/26 01:35:21;;;;;;;3.58;2.92;;;;;;;11.21;51.63;98488.06;1761673;79;20990;-76
2021/01/26 01:37:49;;;;;;;4.05;2.83;;;;;;;11.16;51.51;98499.41;1790326;79;21524;-73
2021/01/26 01:40:27;;;;;;;3.08;2.77;;;;;;;11.16;51.16;98505.59;1766219;80;21552;-75
2021/01/26 01:42:55;;;;;;;3.10;2.60;;;;;;;11.15;50.97;98521.89;1759362;81;21185;-75
2021/01/26 01:45:23;;;;;;;3.67;2.92;;;;;;;11.12;50.67;98540.53;1759664;81;21202;-76
2021/01/26 01:48:02;;;;;;;2.65;2.15;;;;;;;11.10;50.48;98544.47;1759310;81;21149;-74
2021/01/26 01:50:48;;;;;;;3.17;2.75;;;;;;;11.07;50.06;98548.89;1743256;80;22756;-77
2021/01/26 01:53:41;;;;;;;3.95;2.75;;;;;;;10.99;50.09;98575.89;1697940;82;21654;-76
2021/01/26 01:56:35;;;;;;;2.87;2.30;;;;;;;10.98;50.04;98589.80;1725699;82;21234;-75
2021/01/26 01:59:07;;;;;;;3.95;2.62;;;;;;;10.95;49.81;98600.13;1720251;82;21197;-75
2021/01/26 02:01:35;;;;;;;2.65;2.45;;;;;;;10.89;49.69;98605.25;1722289;82;21616;-77
2021/01/26 02:04:09;;;;;;;3.33;2.37;;;;;;;10.83;49.70;98611.95;1697711;82;21054;-76
2021/01/26 02:06:38;;;;;;;3.50;2.42;;;;;;;10.80;49.53;98635.95;1697761;82;21181;-74
2021/01/26 02:09:11;;;;;;;4.85;2.90;;;;;;;10.78;49.62;98638.53;1714268;82;22185;-75
2021/01/26 02:11:39;;;;;;;3.02;2.40;;;;;;;10.78;49.53;98645.23;1729477;81;21219;-76
2021/01/26 02:14:07;;;;;;;4.22;2.20;;;;;;;10.76;49.52;98648.61;1719126;82;21203;-75
2021/01/26 02:17:08;;;;;;;2.87;2.05;;;;;;;10.74;49.42;98646.66;1733737;81;21629;-77
2021/01/26 02:20:22;;;;;;;2.85;2.47;;;;;;;10.69;49.38;98650.47;1724393;81;21198;-76
2021/01/26 02:23:33;;;;;;;3.65;3.05;;;;;;;10.64;49.61;98667.14;1730653;81;22743;-74
2021/01/26 02:26:31;;;;;;;3.37;2.58;;;;;;;10.63;49.62;98663.64;1741179;81;21229;-78
2021/01/26 02:29:06;;;;;;;2.95;2.45;;;;;;;10.57;49.47;98664.42;1733096;81;21205;-75
2021/01/26 02:32:12;;;;;;;3.83;3.02;;;;;;;10.50;49.59;98671.63;1705698;82;21874;-77
2021/01/26 02:35:17;;;;;;;3.83;2.62;;;;;;;10.43;49.50;98665.42;1728322;81;21206;-75
2021/01/26 02:38:26;;;;;;;3.70;2.70;;;;;;;10.35;49.65;98681.65;1677460;84;21391;-76
2021/01/26 02:41:03;;;;;;;3.70;3.20;;;;;;;10.31;49.81;98695.11;1731678;82;21172;-74
2021/01/26 02:44:00;;;;;;;3.67;3.00;;;;;;;10.30;49.82;98713.02;1735289;82;21212;-75
2021/01/26 02:46:50;;;;;;;4.47;3.02;;;;;;;10.30;49.87;98724.24;1735820;82;21172;-74
2021/01/26 02:49:42;;;;;;;3.40;2.60;;;;;;;10.29;49.77;98735.98;1735767;82;21588;-75
2021/01/26 02:52:17;;;;;;;5.03;3.75;;;;;;;10.30;49.66;98742.98;1732413;82;21381;-78
2021/01/26 02:55:14;;;;;;;5.95;3.47;;;;;;;10.29;49.55;98754.71;1728404;82;21588;-77
2021/01/26 02:57:55;;;;;;;4.55;3.00;;;;;;;10.27;49.58;98751.42;1732957;82;21224;-76
2021/01/26 03:00:26;;;;;;;4.90;3.52;;;;;;;10.25;49.60;98747.58;1704181;82;21157;-77
2021/01/26 03:03:02;;;;;;;5.87;3.37;;;;;;;10.27;49.47;98758.94;1732559;82;21548;-74
2021/01/26 03:05:46;;;;;;;4.45;3.95;;;;;;;10.25;49.46;98741.41;1732316;82;21922;-77
2021/01/26 03:08:19;;;;;;;4.50;3.47;;;;;;;10.27;49.30;98721.98;1718276;82;21144;-75
2021/01/26 03:10:56;;;;;;;4.55;3.75;;;;;;;10.27;49.25;98731.35;1732664;82;21687;-75
2021/01/26 03:13:25;;;;;;;4.92;3.87;;;;;;;10.27;49.22;98739.38;1732958;82;21157;-76
2021/01/26 03:15:58;;;;;;;4.58;3.83;;;;;;;10.26;49.04;98744.39;1732567;82;21220;-76
2021/01/26 03:18:35;;;;;;;4.42;3.55;;;;;;;10.26;48.98;98759.94;1741882;81;21805;-75
2021/01/26 03:21:02;;;;;;;5.60;3.90;;;;;;;10.27;48.89;98764.80;1681498;85;21643;-74
2021/01/26 03:23:44;;;;;;;6.62;4.40;;;;;;;10.29;48.81;98781.47;1705205;84;21650;-74
2021/01/26 03:26:16;;;;;;;7.20;5.58;;;;;;;10.31;48.81;98770.05;1704857;84;21178;-76
2021/01/26 03:28:45;;;;;;;10.28;7.17;;;;;;;10.35;48.64;98791.38;1704396;84;21628;-75
2021/01/26 03:31:15;;;;;;;7.72;5.12;;;;;;;10.37;48.51;98796.86;1677097;84;21395;-74
2021/01/26 03:33:47;;;;;;;8.18;6.05;;;;;;;10.38;48.44;98807.88;1704954;84;21235;-76
2021/01/26 03:36:18;;;;;;;9.83;7.15;;;;;;;10.39;48.25;98816.73;1704920;84;21237;-76
2021/01/26 03:38:46;;;;;;;10.25;7.00;;;;;;;10.36;47.98;98825.17;1704659;84;21649;-75
2021/01/26 03:41:15;;;;;;;11.88;8.20;;;;;;;10.29;48.08;98830.46;1705004;84;21138;-76
2021/01/26 03:43:43;;;;;;;9.75;6.95;;;;;;;10.27;48.14;98835.72;1704737;83;21224;-75
2021/01/26 03:46:34;;;;;;;10.03;7.33;;;;;;;10.28;48.05;98842.71;1705045;84;21258;-76
2021/01/26 03:49:40;;;;;;;12.15;8.83;;;;;;;10.28;47.70;98848.89;1704693;83;21239;-76
2021/01/26 03:52:31;;;;;;;12.93;9.55;;;;;;;10.28;47.74;98864.13;1704976;84;21159;-77
2021/01/26 03:55:06;;;;;;;11.12;8.43;;;;;;;10.27;47.51;98882.03;1705019;84;21210;-79
2021/01/26 03:58:00;;;;;;;11.93;8.98;;;;;;;10.28;47.50;98889.55;1672567;85;22274;-76
2021/01/26 04:00:53;;;;;;;14.30;10.03;;;;;;;10.30;47.38;98900.86;1704732;84;21251;-77
2021/01/26 04:03:52;;;;;;;12.47;8.53;;;;;;;10.31;46.89;98899.84;1726505;82;21235;-76
2021/01/26 04:06:28;;;;;;;14.75;8.95;;;;;;;10.29;46.91;98896.55;1705167;82;21210;-77
2021/01/26 04:09:00;;;;;;;10.50;8.13;;;;;;;10.22;46.75;98904.98;1705465;84;21506;-78
2021/01/26 04:11:56;;;;;;;11.28;8.65;;;;;;;10.16;46.51;98910.09;1705173;84;21396;-75
2021/01/26 04:14:29;;;;;;;11.78;8.05;;;;;;;10.13;46.39;98916.37;1672832;84;21257;-77
2021/01/26 04:17:09;;;;;;;11.73;8.48;;;;;;;10.11;46.51;98937.94;1713616;83;21181;-77
2021/01/26 04:19:49;;;;;;;12.15;8.98;;;;;;;10.14;46.36;98932.73;1677263;84;21533;-75
2021/01/26 04:22:17;;;;;;;14.00;10.08;;;;;;;10.14;46.09;98953.62;1704164;84;21183;-78
2021/01/26 04:24:44;;;;;;;16.70;10.78;;;;;;;10.09;46.03;98964.07;1704444;84;21198;-77
2021/01/26 04:27:16;;;;;;;17.17;9.18;;;;;;;10.04;46.07;98959.81;1704832;84;21254;-74
2021/01/26 04:29:44;;;;;;;15.25;9.78;;;;;;;10.01;46.19;98972.22;1704736;84;21186;-76
2021/01/26 04:32:11;;;;;;;14.07;9.58;;;;;;;9.98;46.14;98986.48;1704465;84;21238;-76
2021/01/26 04:34:39;;;;;;;15.93;10.60;;;;;;;9.93;46.14;98979.02;1704316;84;21234;-76
2021/01/26 04:37:07;;;;;;;15.55;11.40;;;;;;;9.93;46.06;98978.20;1705087;84;21377;-76
2021/01/26 04:39:35;;;;;;;17.37;10.65;;;;;;;9.88;46.03;99000.16;1704238;84;21243;-75
2021/01/26 04:42:22;;;;;;;18.12;11.73;;;;;;;9.91;46.20;99003.80;1704301;84;21206;-78
2021/01/26 04:45:14;;;;;;;14.83;9.83;;;;;;;9.95;46.03;99010.44;1697172;84;21217;-77
2021/01/26 04:48:02;;;;;;;17.85;11.57;;;;;;;10.02;45.98;99011.31;1717328;81;21543;-76
2021/01/26 04:50:50;;;;;;;15.80;10.28;;;;;;;10.02;45.70;99032.72;1735909;81;22349;-76
2021/01/26 04:53:47;;;;;;;;;;;;;;;9.99;45.52;99021.56;1764315;81;21208;-74
2021/01/26 04:56:23;;;;;;;14.28;9.45;;;;;;;9.88;45.73;99025.57;1761829;81;20311;-76
2021/01/26 04:59:11;;;;;;;17.10;10.32;;;;;;;9.85;45.94;99056.69;1762030;81;21156;-77
2021/01/26 05:02:12;;;;;;;12.88;9.38;;;;;;;9.89;45.89;99057.47;1746182;81;21679;-77
2021/01/26 05:04:51;;;;;;;15.65;10.18;;;;;;;9.93;45.69;99053.09;1754679;81;21254;-76
2021/01/26 05:07:29;;;;;;;14.40;10.20;;;;;;;9.92;45.67;99072.33;1703884;84;21201;-76
2021/01/26 05:10:11;;;;;;;13.85;9.70;;;;;;;9.96;45.27;99076.28;1717625;82;21143;-75
2021/01/26 05:12:44;;;;;;;12.07;8.60;;;;;;;9.91;45.15;99086.72;1705246;82;21536;-75
2021/01/26 05:15:19;;;;;;;15.95;9.65;;;;;;;9.86;45.40;99079.77;1720966;82;21613;-76
2021/01/26 05:17:54;;;;;;;15.00;9.93;;;;;;;9.88;45.13;99095.11;1723019;81;22128;-75
2021/01/26 05:20:33;;;;;;;14.65;9.13;;;;;;;9.91;45.04;99103.59;1827550;76;22176;-76
2021/01/26 05:23:18;;;;;;;13.13;8.68;;;;;;;9.87;45.07;99104.98;1801873;77;21572;-74
2021/01/26 05:25:49;;;;;;;10.28;7.00;;;;;;;9.90;44.95;99100.61;1801058;77;21474;-77
2021/01/26 05:28:19;;;;;;;11.20;7.22;;;;;;;9.90;44.73;99091.24;1804280;77;21190;-77
2021/01/26 05:30:54;;;;;;;10.65;7.37;;;;;;;9.93;44.45;99119.45;1760646;79;21220;-76
2021/01/26 05:33:16;;;;;;;10.48;7.37;;;;;;;9.94;44.29;99117.59;1743842;79;21200;-77
2021/01/26 05:35:51;;;;;;;11.53;7.55;;;;;;;9.93;44.02;99115.94;1805459;77;21751;-78
2021/01/26 05:38:19;;;;;;;8.78;6.28;;;;;;;9.92;44.20;99097.73;1796346;77;21817;-80
2021/01/26 05:40:56;;;;;;;10.60;7.22;;;;;;;9.95;43.90;99133.48;1794086;77;21030;-74
2021/01/26 05:43:28;;;;;;;12.33;8.05;;;;;;;9.92;43.80;99133.84;1793941;79;21129;-78
2021/01/26 05:45:59;;;;;;;13.08;8.45;;;;;;;9.95;43.75;99140.16;1811481;79;21553;-76
2021/01/26 05:48:27;;;;;;;12.53;7.53;;;;;;;9.95;43.70;99136.63;1729015;81;21292;-74
2021/01/26 05:51:16;;;;;;;14.35;7.60;;;;;;;9.94;43.98;99154.53;1739660;81;21810;-76
2021/01/26 05:53:44;;;;;;;10.72;7.35;;;;;;;9.93;43.42;99146.19;1740171;81;21089;-76
2021/01/26 05:56:17;;;;;;;11.70;7.12;;;;;;;9.91;43.74;99150.91;1753133;79;21172;-77
2021/01/26 05:58:50;;;;;;;8.43;5.45;;;;;;;9.89;43.69;99152.41;1723109;81;21432;-74
2021/01/26 06:01:29;;;;;;;10.98;6.30;;;;;;;9.90;43.69;99168.81;1721597;81;21184;-78
2021/01/26 06:04:11;;;;;;;11.78;6.58;;;;;;;9.92;43.39;99181.98;1747918;81;21263;-77
2021/01/26 06:06:59;;;;;;;11.68;7.03;;;;;;;9.91;43.33;99174.47;1746596;81;21203;-77
2021/01/26 06:09:35;;;;;;;10.25;6.80;;;;;;;9.91;43.29;99188.36;1727493;81;21192;-75
2021/01/26 06:12:21;;;;;;;12.03;7.67;;;;;;;9.93;43.15;99172.94;1783600;79;21447;-74
2021/01/26 06:15:01;;;;;;;13.80;8.20;;;;;;;9.94;43.16;99174.59;1795373;77;21581;-76
2021/01/26 06:17:36;;;;;;;12.05;7.90;;;;;;;9.91;43.30;99191.03;1777378;79;21672;-78
2021/01/26 06:20:12;;;;;;;13.18;7.85;;;;;;;9.88;42.80;99204.77;1795307;79;21422;-76
2021/01/26 06:22:40;;;;;;;14.18;8.23;;;;;;;9.75;43.10;99213.42;1786342;79;21102;-77
2021/01/26 06:25:31;;;;;;;14.50;8.20;;;;;;;9.72;43.27;99226.31;1784741;77;21490;-76
2021/01/26 06:28:15;;;;;;;13.30;8.50;;;;;;;9.69;43.68;99233.39;1787089;77;21093;-77
2021/01/26 06:31:08;;;;;;;14.33;9.10;;;;;;;9.68;43.86;99235.75;1760389;77;21360;-77
2021/01/26 06:33:54;;;;;;;13.78;8.60;;;;;;;9.72;44.00;99245.03;1798819;79;21117;-77
2021/01/26 06:36:59;;;;;;;13.15;8.68;;;;;;;9.79;44.05;99254.00;1803256;79;21441;-77
2021/01/26 06:39:53;;;;;;;14.68;9.63;;;;;;;9.81;43.58;99274.22;1789405;77;21880;-78
2021/01/26 06:42:55;;;;;;;14.07;9.05;;;;;;;9.68;43.60;99263.82;1798055;77;21348;-77
2021/01/26 06:45:43;;;;;;;35.95;15.72;;;;;;;9.58;43.86;99260.04;1794698;77;22647;-77
2021/01/26 06:48:33;;;;;;;26.87;13.68;;;;;;;9.53;44.30;99261.92;1790356;79;21133;-77
2021/01/26 06:51:41;;;;;;;26.60;15.15;;;;;;;9.56;44.38;99286.96;1799307;77;21133;-76
2021/01/26 06:54:20;;;;;;;31.07;16.07;;;;;;;9.59;44.30;99297.30;1800220;77;21089;-76
2021/01/26 06:57:12;;;;;;;30.68;15.32;;;;;;;9.42;44.15;99307.80;1784663;77;21082;-76
2021/01/26 07:00:07;;;;;;;43.48;22.00;;;;;;;9.32;44.63;99319.23;1788885;77;21324;-76
2021/01/26 07:03:16;;;;;;;51.10;22.60;;;;;;;9.28;44.93;99331.29;1746150;80;21173;-75
2021/01/26 07:06:19;;;;;;;55.08;24.45;;;;;;;9.23;45.03;99336.34;1720582;83;21174;-77
2021/01/26 07:09:09;;;;;;;69.75;32.67;;;;;;;9.06;45.29;99342.27;1746333;81;21133;-76
2021/01/26 07:12:11;;;;;;;46.92;22.10;;;;;;;9.00;45.82;99341.14;1748315;81;21121;-76
2021/01/26 07:15:12;;;;;;;49.27;23.70;;;;;;;8.98;45.75;99339.13;1746766;81;22146;-75
2021/01/26 07:18:11;;;;;;;83.82;35.48;;;;;;;8.92;46.13;99357.20;1742361;81;21148;-76
2021/01/26 07:20:50;;;;;;;72.08;33.45;;;;;;;8.94;45.96;99358.35;1739740;81;27172;-76
2021/01/26 07:23:46;;;;;;;60.80;27.82;;;;;;;8.94;46.26;99361.85;1736308;81;21624;-77
2021/01/26 07:26:47;;;;;;;42.65;21.52;;;;;;;9.01;45.91;99368.17;1736394;81;21104;-76
2021/01/26 07:29:46;;;;;;;35.52;17.73;;;;;;;8.95;46.07;99366.22;1740651;79;21422;-75
2021/01/26 07:32:36;;;;;;;;;;;;;;;8.94;45.80;99371.20;1744118;79;21620;-76
2021/01/26 07:35:35;;;;;;;27.13;15.45;;;;;;;8.95;45.91;99374.70;1747775;79;20642;-80
2021/01/26 07:38:10;;;;;;;;;;;;;;;8.97;45.75;99382.88;1742227;81;21073;-80
2021/01/26 07:40:49;;;;;;;18.98;11.45;;;;;;;8.95;45.65;99381.38;1743192;81;20321;-79
2021/01/26 07:43:44;;;;;;;15.80;9.85;;;;;;;8.97;45.83;99373.53;1736279;81;21455;-81
2021/01/26 07:46:29;;;;;;;15.10;9.60;;;;;;;9.07;45.74;99375.98;1727674;79;21134;-80
2021/01/26 07:49:11;;;;;;;21.12;11.55;;;;;;;9.13;45.38;99385.48;1730145;81;21133;-81
2021/01/26 07:51:42;;;;;;;45.63;21.87;;;;;;;9.11;45.44;99400.84;1729344;81;21126;-79
2021/01/26 07:54:53;;;;;;;36.93;17.07;;;;;;;9.14;45.36;99395.66;1733788;81;21252;-82
2021/01/26 07:57:25;;;;;;;20.02;10.55;;;;;;;9.16;45.33;99396.30;1733637;80;21774;-79
2021/01/26 07:59:56;;;;;;;29.45;14.47;;;;;;;9.11;44.97;99402.17;1737694;81;22437;-79
2021/01/26 08:02:30;;;;;;;35.63;16.62;;;;;;;9.07;45.29;99422.22;1735255;81;21117;-80
2021/01/26 08:04:59;;;;;;;27.87;14.28;;;;;;;9.06;45.46;99433.92;1733435;81;21236;-78
2021/01/26 08:07:30;;;;;;;28.25;13.58;;;;;;;9.04;45.30;99427.94;1732660;81;21529;-81
2021/01/26 08:10:00;;;;;;;38.88;16.73;;;;;;;9.03;45.59;99434.77;1740204;79;21797;-81
2021/01/26 08:12:37;;;;;;;30.65;14.18;;;;;;;9.09;45.52;99437.59;1738057;79;21223;-80
2021/01/26 08:15:21;;;;;;;25.65;11.97;;;;;;;9.13;45.53;99450.94;1786005;78;21510;-80
2021/01/26 08:17:49;;;;;;;28.60;13.20;;;;;;;9.19;45.43;99451.24;1781855;79;21181;-80
2021/01/26 08:20:30;;;;;;;23.38;12.68;;;;;;;9.31;45.39;99440.00;1781078;79;21151;-80
2021/01/26 08:23:09;;;;;;;19.32;11.03;;;;;;;9.40;45.17;99454.13;1798339;77;21194;-81
2021/01/26 08:25:38;;;;;;;20.32;11.28;;;;;;;9.44;44.87;99454.61;1776396;79;28298;-83
2021/01/26 08:28:11;;;;;;;17.02;10.18;;;;;;;9.41;44.49;99454.48;1784326;78;21213;-76
2021/01/26 08:30:51;;;;;;;19.10;10.03;;;;;;;9.40;44.57;99450.11;1787676;77;21075;-77
2021/01/26 08:33:21;;;;;;;17.30;9.35;;;;;;;9.39;44.54;99467.16;1787015;79;21161;-78
2021/01/26 08:36:10;;;;;;;14.90;9.08;;;;;;;9.37;44.45;99467.34;1783390;79;21149;-78
2021/01/26 08:38:57;;;;;;;15.93;9.45;;;;;;;9.34;44.72;99454.83;1734202;80;21149;-78
2021/01/26 08:41:41;;;;;;;15.23;9.10;;;;;;;9.41;44.80;99473.19;1788559;77;21121;-76
2021/01/26 08:44:25;;;;;;;15.50;9.60;;;;;;;9.44;44.63;99467.97;1791796;78;21628;-75
2021/01/26 08:46:57;;;;;;;10.28;6.67;;;;;;;9.45;44.87;99469.64;1785587;78;21088;-76
2021/01/26 08:49:33;;;;;;;11.43;7.58;;;;;;;9.56;44.78;99474.09;1773728;78;21201;-76
2021/01/26 08:52:24;;;;;;;11.45;7.62;;;;;;;9.62;44.67;99472.55;1783232;78;21130;-76
2021/01/26 08:54:53;;;;;;;13.43;8.18;;;;;;;9.68;44.56;99480.39;1785569;77;21482;-78
2021/01/26 08:57:35;;;;;;;13.53;8.70;;;;;;;9.66;44.53;99474.70;1786989;78;21070;-78
2021/01/26 09:00:19;;;;;;;10.88;7.62;;;;;;;9.72;44.76;99472.32;1785595;79;21118;-77
2021/01/26 09:02:53;;;;;;;11.90;7.33;;;;;;;9.81;44.96;99477.95;1797148;77;21625;-78
2021/01/26 09:05:52;;;;;;;12.15;7.40;;;;;;;9.91;44.56;99473.22;1683494;81;21133;-77
2021/01/26 09:08:45;;;;;;;11.75;7.50;;;;;;;9.94;44.01;99472.84;1732225;80;21113;-80
2021/01/26 09:11:48;;;;;;;12.95;6.30;;;;;;;9.97;44.12;99480.52;1788775;77;21097;-77
2021/01/26 09:14:47;;;;;;;12.45;7.03;;;;;;;10.05;43.98;99469.77;1789199;77;21109;-76
2021/01/26 09:17:23;;;;;;;11.08;7.53;;;;;;;10.07;43.51;99484.30;1789096;77;21534;-75
2021/01/26 09:20:08;;;;;;;9.20;6.30;;;;;;;10.11;43.52;99515.86;1783174;78;22005;-76
2021/01/26 09:22:37;;;;;;;11.10;6.40;;;;;;;10.12;43.61;99498.80;1721250;81;21124;-76
2021/01/26 09:25:14;;;;;;;9.70;6.40;;;;;;;10.18;43.22;99502.62;1734902;80;21134;-76
2021/01/26 09:27:42;;;;;;;12.23;7.17;;;;;;;10.25;43.09;99496.06;1794784;78;21102;-77
2021/01/26 09:30:21;;;;;;;13.83;8.08;;;;;;;10.26;42.74;99492.37;1788734;78;21205;-75
2021/01/26 09:33:06;;;;;;;16.50;8.28;;;;;;;10.26;42.74;99518.63;1784991;78;21542;-76
2021/01/26 09:35:49;;;;;;;16.48;7.58;;;;;;;10.31;42.50;99520.77;1782166;78;21603;-79
2021/01/26 09:38:48;;;;;;;17.60;8.58;;;;;;;10.25;42.32;99530.86;1765880;79;21086;-76
2021/01/26 09:41:23;;;;;;;24.82;10.88;;;;;;;10.25;42.71;99535.70;1782251;78;21109;-77
2021/01/26 09:44:08;;;;;;;17.25;8.30;;;;;;;10.33;42.40;99538.32;1786575;78;21645;-77
2021/01/26 09:46:46;;;;;;;15.60;8.30;;;;;;;10.35;42.64;99533.61;1782025;78;21497;-76
2021/01/26 09:49:27;;;;;;;18.40;8.50;;;;;;;10.38;41.93;99533.26;1785338;78;21641;-76
2021/01/26 09:52:07;;;;;;;15.38;8.40;;;;;;;10.34;41.96;99526.59;1774575;79;21081;-78
2021/01/26 09:54:37;;;;;;;16.25;7.80;;;;;;;10.36;41.94;99549.19;1799590;77;21114;-74
2021/01/26 09:57:07;;;;;;;17.25;8.28;;;;;;;10.35;42.04;99547.50;1789248;78;21191;-76
2021/01/26 09:59:36;;;;;;;17.20;7.70;;;;;;;10.37;41.69;99536.13;1798371;77;21136;-76
2021/01/26 10:02:10;;;;;;;15.70;7.30;;;;;;;10.36;42.00;99538.48;1803454;77;21126;-78
2021/01/26 10:04:40;;;;;;;16.60;8.70;;;;;;;10.40;41.85;99546.45;1793973;77;21093;-76
2021/01/26 10:07:14;;;;;;;13.58;6.45;;;;;;;10.42;41.87;99547.12;1792983;77;21105;-77
2021/01/26 10:09:42;;;;;;;17.35;8.73;;;;;;;10.45;41.30;99548.63;1759959;79;21351;-76
2021/01/26 10:12:28;;;;;;;14.65;7.47;;;;;;;10.43;41.72;99554.64;1774779;79;21132;-77
2021/01/26 10:15:33;;;;;;;16.40;7.45;;;;;;;10.41;41.23;99556.17;1797378;77;21137;-78
2021/01/26 10:18:29;;;;;;;14.18;7.03;;;;;;;10.36;41.73;99549.19;1802539;77;21058;-76
2021/01/26 10:21:02;;;;;;;14.40;7.60;;;;;;;10.34;41.49;99560.56;1808388;77;21105;-75
2021/01/26 10:23:38;;;;;;;10.35;5.90;;;;;;;10.37;41.98;99569.59;1803823;77;21190;-77
2021/01/26 10:26:23;;;;;;;9.93;6.10;;;;;;;10.37;41.51;99565.06;1800953;77;20994;-76
2021/01/26 10:29:15;;;;;;;12.85;6.75;;;;;;;10.35;41.17;99564.91;1799768;77;21122;-76
2021/01/26 10:31:57;;;;;;;13.38;7.50;;;;;;;9.74;42.43;99571.94;1796553;77;21113;-75
2021/01/26 10:34:41;;;;;;;10.43;5.67;;;;;;;9.68;43.02;99569.97;1797992;77;21055;-78
2021/01/26 10:37:28;;;;;;;12.98;6.70;;;;;;;9.79;42.95;99558.87;1716271;81;21363;-76
2021/01/26 10:40:24;;;;;;;33.83;14.00;;;;;;;9.76;43.37;99560.55;1733995;80;21620;-77
2021/01/26 10:43:11;;;;;;;46.77;16.80;;;;;;;10.32;42.55;99550.05;1794578;77;21098;-77
2021/01/26 10:45:52;;;;;;;53.25;21.10;;;;;;;10.53;42.13;99533.30;1786874;78;21161;-75
2021/01/26 10:48:33;;;;;;;46.30;19.02;;;;;;;10.61;42.13;99558.67;1779561;78;21097;-76
2021/01/26 10:51:16;;;;;;;66.92;23.50;;;;;;;10.72;41.98;99549.88;1801665;77;21133;-76
2021/01/26 10:53:45;;;;;;;57.03;21.75;;;;;;;10.77;41.84;99567.59;1792894;78;21430;-75
2021/01/26 10:56:13;;;;;;;53.05;20.97;;;;;;;10.80;41.34;99568.55;1790002;77;21535;-76
2021/01/26 10:58:42;;;;;;;21.70;11.08;;;;;;;10.68;41.24;99556.63;1798940;78;21101;-75
2021/01/26 11:01:12;;;;;;;17.95;8.23;;;;;;;10.60;41.25;99554.34;1791954;78;21262;-74
2021/01/26 11:03:40;;;;;;;11.22;6.28;;;;;;;10.53;41.18;99568.11;1786354;78;22650;-76
2021/01/26 11:06:09;;;;;;;13.72;6.45;;;;;;;10.49;41.47;99557.45;1803142;77;21106;-78
2021/01/26 11:08:38;;;;;;;6.85;4.72;;;;;;;10.49;41.63;99565.48;1789482;78;21588;-77
2021/01/26 11:11:06;;;;;;;10.03;5.30;;;;;;;10.51;40.99;99578.17;1787225;77;21616;-77
2021/01/26 11:13:34;;;;;;;8.45;5.50;;;;;;;10.46;40.61;99575.20;1702589;81;21109;-77
2021/01/26 11:16:01;;;;;;;7.35;5.00;;;;;;;10.37;41.03;99577.11;1731332;80;21507;-75
2021/01/26 11:18:29;;;;;;;9.33;5.12;;;;;;;10.36;41.38;99569.27;1791049;79;21348;-77
2021/01/26 11:21:00;;;;;;;10.25;5.47;;;;;;;10.44;41.40;99558.98;1782134;78;21131;-78
2021/01/26 11:23:28;;;;;;;8.10;4.70;;;;;;;10.52;41.26;99563.77;1765850;79;21108;-77
2021/01/26 11:25:56;;;;;;;8.25;5.10;;;;;;;10.59;41.28;99570.59;1741652;81;21101;-75
2021/01/26 11:28:24;;;;;;;8.75;5.70;;;;;;;10.68;41.34;99570.85;1781051;79;21185;-77
2021/01/26 11:30:52;;;;;;;10.65;6.30;;;;;;;10.76;41.18;99569.92;1786398;78;21188;-78
2021/01/26 11:33:21;;;;;;;8.25;5.53;;;;;;;10.77;40.49;99571.11;1782664;77;21101;-76
2021/01/26 11:35:49;;;;;;;7.28;4.60;;;;;;;10.65;40.36;99554.62;1787527;77;21104;-77
2021/01/26 11:38:17;;;;;;;6.97;4.42;;;;;;;10.58;40.66;99556.38;1780749;78;21596;-78
2021/01/26 11:40:45;;;;;;;13.00;7.12;;;;;;;10.60;40.91;99553.51;1784760;77;21383;-78
2021/01/26 11:43:13;;;;;;;7.87;5.17;;;;;;;10.69;40.50;99549.75;1779148;79;21141;-78
2021/01/26 11:45:42;;;;;;;6.33;4.40;;;;;;;10.74;40.77;99563.94;1779695;78;21107;-79
2021/01/26 11:48:10;;;;;;;6.35;4.30;;;;;;;10.79;40.35;99566.38;1749481;80;21098;-80
2021/01/26 11:50:40;;;;;;;10.72;5.10;;;;;;;10.77;39.80;99571.11;1757743;80;21093;-78
2021/01/26 11:53:11;;;;;;;6.55;4.53;;;;;;;10.71;40.10;99574.48;1731125;81;22219;-79
2021/01/26 11:55:43;;;;;;;7.53;5.12;;;;;;;10.71;40.34;99572.32;1723686;81;21193;-79
2021/01/26 11:58:11;;;;;;;7.80;4.60;;;;;;;10.73;40.16;99584.53;1714872;81;21206;-77
2021/01/26 12:00:40;;;;;;;8.10;4.58;;;;;;;10.71;40.24;99583.03;1731909;80;21634;-79
2021/01/26 12:03:08;;;;;;;9.33;5.47;;;;;;;10.71;40.34;99579.84;1788132;77;21173;-81
2021/01/26 12:05:38;;;;;;;10.23;6.00;;;;;;;10.76;40.37;99577.45;1729094;80;22223;-78
2021/01/26 12:08:07;;;;;;;15.10;8.80;;;;;;;10.79;40.20;99600.38;1782906;77;21174;-76
2021/01/26 12:10:39;;;;;;;16.95;8.75;;;;;;;10.83;40.20;99603.03;1788716;78;21193;-76
2021/01/26 12:13:10;;;;;;;10.80;7.03;;;;;;;10.81;40.10;99598.34;1801845;77;21078;-77
2021/01/26 12:15:44;;;;;;;49.05;19.12;;;;;;;10.75;40.03;99589.70;1794922;77;21110;-77
2021/01/26 12:18:09;;;;;;;20.90;9.35;;;;;;;10.72;40.41;99613.67;1747555;80;21377;-78
2021/01/26 12:20:38;;;;;;;27.93;11.60;;;;;;;10.70;40.07;99617.02;1721482;81;21169;-79